createdAt,value
2018-02-22T00:00:15.769Z,95700.20
2018-02-22T00:02:44.116Z,95699.81
2018-02-22T00:05:13.479Z,95695.50
2018-02-22T00:07:41.836Z,95696.73
2018-02-22T00:10:10.179Z,95692.89
2018-02-22T00:12:38.552Z,95693.30
2018-02-22T00:15:06.931Z,95688.94
2018-02-22T00:17:35.295Z,95695.64
2018-02-22T00:20:03.663Z,95688.11
2018-02-22T00:22:32.034Z,95687.48
2018-02-22T00:25:00.443Z,95693.08
2018-02-22T00:27:28.798Z,95684.91
2018-02-22T00:29:57.136Z,95679.52
2018-02-22T00:32:25.512Z,95673.95
2018-02-22T00:34:53.886Z,95672.89
2018-02-22T00:37:22.295Z,95677.78
2018-02-22T00:39:50.642Z,95674.89
2018-02-22T00:42:19.012Z,95671.78
2018-02-22T00:44:47.485Z,95673.04
2018-02-22T00:47:15.843Z,95667.30
2018-02-22T00:49:44.217Z,95661.52
2018-02-22T00:52:12.575Z,95661.02
2018-02-22T00:54:40.914Z,95644.25
2018-02-22T00:57:09.592Z,95653.75
2018-02-22T00:59:37.962Z,95650.10
2018-02-22T01:02:06.307Z,95650.25
2018-02-22T01:04:34.723Z,95648.52
2018-02-22T01:07:03.068Z,95641.69
2018-02-22T01:09:31.418Z,95641.33
2018-02-22T01:11:59.773Z,95650.28
2018-02-22T01:14:28.118Z,95647.23
2018-02-22T01:16:56.473Z,95640.89
2018-02-22T01:19:24.837Z,95646.64
2018-02-22T01:21:53.188Z,95645.77
2018-02-22T01:24:21.538Z,95640.69
2018-02-22T01:26:49.915Z,95640.48
2018-02-22T01:29:18.283Z,95643.36
2018-02-22T01:31:46.623Z,95635.79
2018-02-22T01:34:15.041Z,95634.37
2018-02-22T01:36:43.395Z,95628.37
2018-02-22T01:39:11.747Z,95633.41
2018-02-22T01:41:40.114Z,95627.55
2018-02-22T01:44:08.462Z,95637.90
2018-02-22T01:46:36.812Z,95631.48
2018-02-22T01:49:05.178Z,95623.23
2018-02-22T01:51:33.540Z,95628.60
2018-02-22T01:54:01.898Z,95625.20
2018-02-22T01:56:30.259Z,95624.38
2018-02-22T01:58:58.613Z,95621.13
2018-02-22T02:01:26.975Z,95621.88
2018-02-22T02:03:55.330Z,95615.34
2018-02-22T02:06:23.695Z,95622.17
2018-02-22T02:08:52.043Z,95619.03
2018-02-22T02:11:20.391Z,95613.81
2018-02-22T02:13:48.778Z,95616.40
2018-02-22T02:16:17.139Z,95609.27
2018-02-22T02:18:45.518Z,95611.84
2018-02-22T02:21:13.890Z,95615.48
2018-02-22T02:23:42.234Z,95609.73
2018-02-22T02:26:10.594Z,95609.39
2018-02-22T02:28:39.555Z,95604.16
2018-02-22T02:31:07.924Z,95598.65
2018-02-22T02:33:36.282Z,95595.51
2018-02-22T02:36:04.166Z,95584.81
2018-02-22T02:38:32.420Z,95592.52
2018-02-22T02:41:00.757Z,95591.55
2018-02-22T02:43:29.142Z,95586.36
2018-02-22T02:45:57.507Z,95583.48
2018-02-22T02:48:25.848Z,95585.89
2018-02-22T02:50:54.219Z,95578.55
2018-02-22T02:53:22.574Z,95578.62
2018-02-22T02:55:50.937Z,95578.35
2018-02-22T02:58:19.352Z,95573.91
2018-02-22T03:00:47.691Z,95576.61
2018-02-22T03:03:16.062Z,95571.22
2018-02-22T03:05:44.440Z,95571.34
2018-02-22T03:08:12.794Z,95562.09
2018-02-22T03:10:41.166Z,95569.17
2018-02-22T03:13:09.525Z,95563.00
2018-02-22T03:15:37.890Z,95557.84
2018-02-22T03:18:06.299Z,95553.34
2018-02-22T03:20:34.673Z,95552.91
2018-02-22T03:23:03.048Z,95555.09
2018-02-22T03:25:31.399Z,95551.94
2018-02-22T03:27:59.763Z,95547.75
2018-02-22T03:30:28.160Z,95552.91
2018-02-22T03:32:56.531Z,95545.09
2018-02-22T03:35:24.895Z,95541.44
2018-02-22T03:37:53.240Z,95538.48
2018-02-22T03:40:21.599Z,95533.25
2018-02-22T03:42:49.949Z,95536.23
2018-02-22T03:45:18.314Z,95533.46
2018-02-22T03:47:46.669Z,95533.84
2018-02-22T03:50:15.019Z,95532.80
2018-02-22T03:52:43.386Z,95533.50
2018-02-22T03:55:11.750Z,95535.37
2018-02-22T03:57:40.314Z,95535.99
2018-02-22T04:00:08.664Z,95532.08
2018-02-22T04:02:37.051Z,95532.30
2018-02-22T04:05:05.418Z,95532.05
2018-02-22T04:07:33.785Z,95542.22
2018-02-22T04:10:02.172Z,95537.26
2018-02-22T04:12:30.531Z,95533.70
2018-02-22T04:14:58.891Z,95540.54
2018-02-22T04:17:27.243Z,95539.44
2018-02-22T04:19:55.598Z,95532.88
2018-02-22T04:22:23.988Z,95535.02
2018-02-22T04:24:52.346Z,95544.83
2018-02-22T04:27:20.698Z,95537.26
2018-02-22T04:29:49.084Z,95531.95
2018-02-22T04:32:17.426Z,95531.61
2018-02-22T04:34:45.826Z,95536.20
2018-02-22T04:37:14.190Z,95542.14
2018-02-22T04:39:42.565Z,95543.80
2018-02-22T04:42:10.922Z,95533.09
2018-02-22T04:44:39.271Z,95534.16
2018-02-22T04:47:07.689Z,95541.55
2018-02-22T04:49:36.034Z,95540.80
2018-02-22T04:52:04.379Z,95541.37
2018-02-22T04:54:32.807Z,95543.67
2018-02-22T04:57:01.191Z,95550.39
2018-02-22T04:59:30.379Z,95550.10
2018-02-22T05:01:58.774Z,95543.56
2018-02-22T05:04:27.127Z,95543.09
2018-02-22T05:06:55.506Z,95538.93
2018-02-22T05:09:23.865Z,95547.95
2018-02-22T05:11:52.233Z,95548.61
2018-02-22T05:14:20.583Z,95540.00
2018-02-22T05:16:48.979Z,95553.84
2018-02-22T05:19:17.633Z,95542.66
2018-02-22T05:21:45.962Z,95534.92
2018-02-22T05:24:14.306Z,95533.66
2018-02-22T05:26:42.628Z,95538.10
2018-02-22T05:29:10.971Z,95530.77
2018-02-22T05:31:57.940Z,95534.45
2018-02-22T05:34:26.282Z,95537.26
2018-02-22T05:36:54.620Z,95529.66
2018-02-22T05:39:22.946Z,95535.75
2018-02-22T05:41:51.288Z,95528.20
2018-02-22T05:44:19.630Z,95529.42
2018-02-22T05:46:47.966Z,95527.64
2018-02-22T05:49:16.304Z,95540.58
2018-02-22T05:51:44.658Z,95534.89
2018-02-22T05:54:13.104Z,95537.13
2018-02-22T05:56:41.444Z,95538.20
2018-02-22T05:59:09.774Z,95531.08
2018-02-22T06:01:38.115Z,95526.59
2018-02-22T06:04:06.459Z,95540.53
2018-02-22T06:06:34.779Z,95538.99
2018-02-22T06:09:03.118Z,95537.70
2018-02-22T06:11:31.455Z,95538.06
2018-02-22T06:13:59.807Z,95536.75
2018-02-22T06:16:28.160Z,95548.61
2018-02-22T06:18:56.506Z,95539.25
2018-02-22T06:21:24.846Z,95542.75
2018-02-22T06:23:53.176Z,95538.42
2018-02-22T06:26:21.559Z,95543.55
2018-02-22T06:28:49.959Z,95543.63
2018-02-22T06:31:18.307Z,95547.83
2018-02-22T06:33:46.654Z,95539.06
2018-02-22T06:36:14.995Z,95546.05
2018-02-22T06:38:43.336Z,95548.56
2018-02-22T06:41:11.674Z,95550.84
2018-02-22T06:43:40.012Z,95558.30
2018-02-22T06:46:08.353Z,95560.08
2018-02-22T06:48:36.689Z,95550.80
2018-02-22T06:51:05.054Z,95552.63
2018-02-22T06:53:33.398Z,95558.09
2018-02-22T06:56:01.723Z,95556.41
2018-02-22T06:58:30.068Z,95553.36
2018-02-22T07:00:58.428Z,95558.02
2018-02-22T07:03:26.762Z,95559.73
2018-02-22T07:05:55.101Z,95559.46
2018-02-22T07:08:23.480Z,95559.61
2018-02-22T07:10:51.850Z,95568.95
2018-02-22T07:13:20.171Z,95572.53
2018-02-22T07:15:48.511Z,95562.69
2018-02-22T07:18:16.839Z,95558.08
2018-02-22T07:20:45.182Z,95564.84
2018-02-22T07:23:16.790Z,95569.05
2018-02-22T07:25:41.867Z,95558.80
2018-02-22T07:28:10.199Z,95567.41
2018-02-22T07:30:38.534Z,95553.64
2018-02-22T07:33:06.859Z,95564.94
2018-02-22T07:35:35.207Z,95559.75
2018-02-22T07:38:03.547Z,95556.58
2018-02-22T07:40:31.914Z,95551.86
2018-02-22T07:43:00.249Z,95562.46
2018-02-22T07:45:28.595Z,95559.97
2018-02-22T07:47:56.928Z,95549.94
2018-02-22T07:50:25.264Z,95556.86
2018-02-22T07:52:53.610Z,95552.61
2018-02-22T07:55:21.950Z,95554.80
2018-02-22T07:57:50.270Z,95553.83
2018-02-22T08:00:18.617Z,95548.14
2018-02-22T08:02:46.943Z,95551.38
2018-02-22T08:05:15.360Z,95549.09
2018-02-22T08:07:43.659Z,95556.42
2018-02-22T08:10:11.998Z,95551.23
2018-02-22T08:12:40.337Z,95555.84
2018-02-22T08:15:08.680Z,95549.69
2018-02-22T08:17:37.010Z,95553.20
2018-02-22T08:20:05.356Z,95542.69
2018-02-22T08:22:33.673Z,95552.48
2018-02-22T08:25:02.020Z,95552.27
2018-02-22T08:27:30.345Z,95555.73
2018-02-22T08:29:58.750Z,95547.08
2018-02-22T08:32:27.076Z,95546.02
2018-02-22T08:34:55.416Z,95543.73
2018-02-22T08:37:23.763Z,95549.16
2018-02-22T08:39:52.103Z,95545.13
2018-02-22T08:42:20.447Z,95541.25
2018-02-22T08:44:48.775Z,95542.45
2018-02-22T08:47:17.104Z,95540.52
2018-02-22T08:49:45.442Z,95541.09
2018-02-22T08:52:13.768Z,95548.22
2018-02-22T08:54:42.105Z,95543.52
2018-02-22T08:57:10.486Z,95542.66
2018-02-22T08:59:38.794Z,95541.25
2018-02-22T09:02:07.130Z,95544.53
2018-02-22T09:04:35.467Z,95544.81
2018-02-22T09:07:03.901Z,95543.14
2018-02-22T09:09:32.236Z,95544.87
2018-02-22T09:12:00.564Z,95539.44
2018-02-22T09:14:28.891Z,95552.06
2018-02-22T09:16:57.231Z,95538.67
2018-02-22T09:19:25.579Z,95544.75
2018-02-22T09:21:53.921Z,95542.75
2018-02-22T09:24:22.291Z,95537.05
2018-02-22T09:26:50.634Z,95542.19
2018-02-22T09:29:18.962Z,95550.09
2018-02-22T09:34:21.963Z,95553.70
2018-02-22T09:36:50.318Z,95553.98
2018-02-22T09:39:18.660Z,95548.26
2018-02-22T09:41:46.990Z,95544.00
2018-02-22T09:44:15.319Z,95544.56
2018-02-22T09:46:43.659Z,95546.16
2018-02-22T09:49:11.992Z,95547.47
2018-02-22T09:51:40.327Z,95547.98
2018-02-22T09:54:08.677Z,95552.75
2018-02-22T09:56:36.994Z,95544.03
2018-02-22T09:59:05.334Z,95548.00
2018-02-22T10:01:33.671Z,95552.81
2018-02-22T10:04:02.002Z,95557.20
2018-02-22T10:06:30.340Z,95552.02
2018-02-22T10:08:58.673Z,95551.48
2018-02-22T10:11:27.025Z,95553.19
2018-02-22T10:13:55.367Z,95557.69
2018-02-22T10:16:23.707Z,95560.92
2018-02-22T10:18:52.052Z,95562.91
2018-02-22T10:21:20.373Z,95566.30
2018-02-22T10:23:48.698Z,95561.30
2018-02-22T10:26:17.018Z,95556.39
2018-02-22T10:28:45.408Z,95559.94
2018-02-22T10:31:13.718Z,95551.77
2018-02-22T10:33:42.060Z,95556.98
2018-02-22T10:36:10.402Z,95560.17
2018-02-22T10:38:38.808Z,95561.78
2018-02-22T10:41:07.147Z,95559.64
2018-02-22T10:43:35.530Z,95558.39
2018-02-22T10:46:03.922Z,95563.19
2018-02-22T10:48:32.270Z,95567.56
2018-02-22T10:51:00.607Z,95548.19
2018-02-22T10:53:28.947Z,95554.03
2018-02-22T10:55:57.280Z,95559.52
2018-02-22T10:58:25.609Z,95553.95
2018-02-22T11:00:59.751Z,95548.44
2018-02-22T11:03:28.086Z,95554.34
2018-02-22T11:05:56.428Z,95555.13
2018-02-22T11:08:24.761Z,95555.77
2018-02-22T11:10:53.100Z,95547.48
2018-02-22T11:13:21.450Z,95547.83
2018-02-22T11:15:49.774Z,95540.81
2018-02-22T11:18:18.101Z,95548.38
2018-02-22T11:20:46.445Z,95550.03
2018-02-22T11:23:14.758Z,95549.89
2018-02-22T11:25:43.092Z,95544.77
2018-02-22T11:28:11.418Z,95542.97
2018-02-22T11:30:39.761Z,95541.48
2018-02-22T11:33:08.074Z,95540.14
2018-02-22T11:35:36.417Z,95543.66
2018-02-22T11:38:04.734Z,95539.65
2018-02-22T11:40:33.076Z,95535.66
2018-02-22T11:43:01.400Z,95531.53
2018-02-22T11:45:29.738Z,95524.34
2018-02-22T11:47:58.062Z,95528.14
2018-02-22T11:50:26.412Z,95526.16
2018-02-22T11:52:54.742Z,95521.19
2018-02-22T11:55:23.099Z,95526.13
2018-02-22T11:57:51.416Z,95521.92
2018-02-22T12:00:19.748Z,95521.85
2018-02-22T12:02:48.066Z,95523.01
2018-02-22T12:05:16.402Z,95527.77
2018-02-22T12:07:44.718Z,95534.70
2018-02-22T12:10:13.121Z,95523.92
2018-02-22T12:12:41.418Z,95521.98
2018-02-22T12:15:09.738Z,95527.72
2018-02-22T12:17:38.062Z,95516.23
2018-02-22T12:20:06.382Z,95527.77
2018-02-22T12:22:34.718Z,95520.30
2018-02-22T12:25:03.052Z,95528.45
2018-02-22T12:27:31.375Z,95527.77
2018-02-22T12:29:59.688Z,95530.34
2018-02-22T12:32:28.023Z,95526.79
2018-02-22T12:34:56.352Z,95510.80
2018-02-22T12:37:24.676Z,95522.13
2018-02-22T12:39:53.071Z,95525.38
2018-02-22T12:42:21.390Z,95518.42
2018-02-22T12:44:49.715Z,95516.98
2018-02-22T12:47:18.053Z,95516.81
2018-02-22T12:49:46.451Z,95519.98
2018-02-22T12:52:14.780Z,95514.47
2018-02-22T12:54:43.114Z,95516.14
2018-02-22T12:57:11.458Z,95520.34
2018-02-22T13:01:35.555Z,95520.41
2018-02-22T13:04:03.879Z,95524.30
2018-02-22T13:06:32.224Z,95517.02
2018-02-22T13:09:00.543Z,95517.03
2018-02-22T13:11:28.895Z,95513.10
2018-02-22T13:13:57.219Z,95513.86
2018-02-22T13:16:25.546Z,95513.46
2018-02-22T13:18:53.878Z,95511.96
2018-02-22T13:21:22.190Z,95511.32
2018-02-22T13:23:50.519Z,95508.11
2018-02-22T13:26:18.826Z,95512.92
2018-02-22T13:28:47.154Z,95510.82
2018-02-22T13:31:15.492Z,95510.27
2018-02-22T13:33:55.648Z,95504.08
2018-02-22T13:36:24.019Z,95508.67
2018-02-22T13:39:04.346Z,95509.06
2018-02-22T13:41:32.659Z,95506.06
2018-02-22T13:44:12.982Z,95505.66
2018-02-22T13:46:41.310Z,95502.81
2018-02-22T13:49:21.569Z,95502.87
2018-02-22T13:51:49.928Z,95498.98
2018-02-22T13:54:18.280Z,95504.56
2018-02-22T13:56:58.467Z,95502.56
2018-02-22T13:59:26.811Z,95506.22
2018-02-22T14:02:07.031Z,95503.42
2018-02-22T14:04:35.356Z,95503.16
2018-02-22T14:07:03.674Z,95513.53
2018-02-22T14:09:32.006Z,95507.45
2018-02-22T14:12:00.346Z,95506.22
2018-02-22T14:14:28.680Z,95504.56
2018-02-22T14:16:57.000Z,95508.00
2018-02-22T14:19:25.352Z,95507.02
2018-02-22T14:21:53.686Z,95509.16
2018-02-22T14:24:22.036Z,95501.92
2018-02-22T14:26:50.357Z,95501.95
2018-02-22T14:29:18.749Z,95507.89
2018-02-22T14:31:47.071Z,95504.95
2018-02-22T14:34:15.423Z,95504.03
2018-02-22T14:36:43.771Z,95507.89
2018-02-22T14:39:12.117Z,95509.09
2018-02-22T14:41:40.446Z,95509.02
2018-02-22T14:44:08.815Z,95504.48
2018-02-22T14:46:37.143Z,95505.42
2018-02-22T14:49:05.486Z,95513.02
2018-02-22T14:51:33.826Z,95501.77
2018-02-22T14:54:02.178Z,95506.31
2018-02-22T14:56:30.526Z,95509.23
2018-02-22T14:58:58.884Z,95501.78
2018-02-22T15:01:27.267Z,95501.59
2018-02-22T15:03:55.563Z,95505.58
2018-02-22T15:06:23.903Z,95504.19
2018-02-22T15:08:52.251Z,95507.62
2018-02-22T15:11:20.607Z,95514.73
2018-02-22T15:13:48.923Z,95510.47
2018-02-22T15:16:17.258Z,95509.53
2018-02-22T15:18:45.585Z,95518.40
2018-02-22T15:21:13.911Z,95520.20
2018-02-22T15:23:42.248Z,95516.08
2018-02-22T15:26:10.603Z,95518.58
2018-02-22T15:28:38.958Z,95519.34
2018-02-22T15:31:07.406Z,95517.33
2018-02-22T15:33:35.782Z,95525.27
2018-02-22T15:36:04.112Z,95519.14
2018-02-22T15:38:32.633Z,95528.38
2018-02-22T15:41:00.964Z,95529.41
2018-02-22T15:43:29.299Z,95521.47
2018-02-22T15:45:57.653Z,95530.93
2018-02-22T15:48:25.988Z,95539.36
2018-02-22T15:50:54.351Z,95535.53
2018-02-22T15:53:22.679Z,95539.51
2018-02-22T15:55:51.043Z,95540.06
2018-02-22T15:58:19.392Z,95542.72
2018-02-22T16:00:47.796Z,95539.61
2018-02-22T16:03:16.118Z,95546.88
2018-02-22T16:05:44.454Z,95539.79
2018-02-22T16:08:12.805Z,95546.42
2018-02-22T16:10:41.140Z,95548.45
2018-02-22T16:13:09.476Z,95547.63
2018-02-22T16:15:37.808Z,95547.84
2018-02-22T16:18:06.142Z,95544.67
2018-02-22T16:20:34.491Z,95547.67
2018-02-22T16:23:02.824Z,95542.31
2018-02-22T16:25:31.168Z,95549.71
2018-02-22T16:27:59.496Z,95544.82
2018-02-22T16:30:27.859Z,95549.22
2018-02-22T16:32:56.193Z,95548.45
2018-02-22T16:35:24.539Z,95549.66
2018-02-22T16:37:52.878Z,95553.67
2018-02-22T16:40:21.212Z,95552.13
2018-02-22T16:42:49.622Z,95557.66
2018-02-22T16:45:17.958Z,95562.11
2018-02-22T16:47:46.306Z,95563.18
2018-02-22T16:50:14.654Z,95568.27
2018-02-22T16:52:43.022Z,95567.77
2018-02-22T16:55:11.363Z,95567.07
2018-02-22T16:57:39.702Z,95573.70
2018-02-22T17:00:08.073Z,95573.67
2018-02-22T17:02:36.444Z,95577.78
2018-02-22T17:05:04.784Z,95574.97
2018-02-22T17:07:33.136Z,95580.91
2018-02-22T17:10:01.468Z,95577.42
2018-02-22T17:12:29.815Z,95583.81
2018-02-22T17:14:58.188Z,95581.91
2018-02-22T17:17:38.339Z,95585.03
2018-02-22T17:20:06.677Z,95584.81
2018-02-22T17:22:35.012Z,95585.77
2018-02-22T17:25:03.366Z,95590.88
2018-02-22T17:27:37.299Z,95588.23
2018-02-22T17:30:11.366Z,95585.33
2018-02-22T17:32:39.716Z,95592.43
2018-02-22T17:35:08.933Z,95594.61
2018-02-22T17:37:37.276Z,95597.19
2018-02-22T17:40:11.176Z,95597.95
2018-02-22T17:42:49.424Z,95597.86
2018-02-22T17:45:17.764Z,95600.52
2018-02-22T17:47:46.114Z,95598.71
2018-02-22T17:50:14.475Z,95597.13
2018-02-22T17:52:42.827Z,95601.20
2018-02-22T17:55:11.168Z,95599.06
2018-02-22T17:57:39.523Z,95607.55
2018-02-22T18:00:07.860Z,95604.87
2018-02-22T18:02:36.193Z,95610.45
2018-02-22T18:05:04.523Z,95606.00
2018-02-22T18:07:32.859Z,95598.77
2018-02-22T18:10:01.207Z,95606.58
2018-02-22T18:12:29.536Z,95598.17
2018-02-22T18:14:57.960Z,95607.84
2018-02-22T18:17:26.290Z,95600.82
2018-02-22T18:19:54.634Z,95604.55
2018-02-22T18:22:22.977Z,95607.70
2018-02-22T18:24:51.329Z,95604.02
2018-02-22T18:27:19.676Z,95601.17
2018-02-22T18:29:48.072Z,95601.20
2018-02-22T18:32:16.355Z,95599.11
2018-02-22T18:34:44.707Z,95601.01
2018-02-22T18:37:18.623Z,95599.12
2018-02-22T18:39:47.675Z,95603.25
2018-02-22T18:42:20.908Z,95603.52
2018-02-22T18:44:54.866Z,95601.67
2018-02-22T18:47:23.214Z,95597.22
2018-02-22T18:49:51.550Z,95594.38
2018-02-22T18:52:19.895Z,95594.78
2018-02-22T18:54:48.294Z,95595.39
2018-02-22T18:57:16.594Z,95590.05
2018-02-22T18:59:45.934Z,95590.47
2018-02-22T19:02:14.278Z,95590.94
2018-02-22T19:04:42.710Z,95600.47
2018-02-22T19:07:11.046Z,95591.98
2018-02-22T19:09:39.382Z,95585.28
2018-02-22T19:12:07.720Z,95587.86
2018-02-22T19:14:36.051Z,95597.33
2018-02-22T19:17:04.386Z,95595.95
2018-02-22T19:19:32.728Z,95591.92
2018-02-22T19:22:01.176Z,95597.38
2018-02-22T19:24:29.510Z,95590.59
2018-02-22T19:26:57.845Z,95594.33
2018-02-22T19:29:26.195Z,95584.40
2018-02-22T19:31:54.527Z,95579.80
2018-02-22T19:34:22.891Z,95578.36
2018-02-22T19:36:51.224Z,95580.04
2018-02-22T19:39:19.567Z,95576.60
2018-02-22T19:41:47.909Z,95579.98
2018-02-22T19:44:16.254Z,95577.68
2018-02-22T19:46:44.607Z,95580.36
2018-02-22T19:49:12.927Z,95579.41
2018-02-22T19:51:41.250Z,95577.88
2018-02-22T19:54:09.590Z,95576.48
2018-02-22T19:56:37.926Z,95574.58
2018-02-22T19:59:06.255Z,95574.33
2018-02-22T20:01:34.600Z,95575.75
2018-02-22T20:04:02.942Z,95578.85
2018-02-22T20:06:31.326Z,95577.52
2018-02-22T20:08:59.632Z,95574.36
2018-02-22T20:11:27.975Z,95569.88
2018-02-22T20:13:56.326Z,95570.33
2018-02-22T20:16:24.684Z,95574.27
2018-02-22T20:18:53.023Z,95579.92
2018-02-22T20:21:21.369Z,95571.74
2018-02-22T20:23:49.692Z,95573.35
2018-02-22T20:26:18.031Z,95579.98
2018-02-22T20:28:46.380Z,95575.95
2018-02-22T20:31:14.710Z,95577.37
2018-02-22T20:33:43.045Z,95572.63
2018-02-22T20:36:11.488Z,95574.59
2018-02-22T20:38:39.841Z,95574.17
2018-02-22T20:41:08.196Z,95572.03
2018-02-22T20:43:36.521Z,95568.81
2018-02-22T20:46:04.863Z,95563.91
2018-02-22T20:48:33.215Z,95556.09
2018-02-22T20:51:03.058Z,95562.63
2018-02-22T20:53:31.383Z,95564.36
2018-02-22T20:55:59.730Z,95560.50
2018-02-22T20:58:35.757Z,95568.62
2018-02-22T21:01:04.188Z,95572.09
2018-02-22T21:03:33.484Z,95552.93
2018-02-22T21:06:01.820Z,95562.69
2018-02-22T21:08:30.163Z,95561.83
2018-02-22T21:10:58.493Z,95557.09
2018-02-22T21:13:26.831Z,95566.79
2018-02-22T21:15:55.168Z,95559.14
2018-02-22T21:18:23.539Z,95550.59
2018-02-22T21:20:51.887Z,95552.67
2018-02-22T21:23:20.239Z,95545.92
2018-02-22T21:25:48.585Z,95547.38
2018-02-22T21:28:16.939Z,95553.65
2018-02-22T21:30:45.284Z,95553.15
2018-02-22T21:33:13.670Z,95549.23
2018-02-22T21:35:42.035Z,95550.91
2018-02-22T21:38:10.368Z,95557.09
2018-02-22T21:40:38.758Z,95547.21
2018-02-22T21:43:07.074Z,95554.38
2018-02-22T21:45:35.426Z,95556.78
2018-02-22T21:48:03.756Z,95557.16
2018-02-22T21:50:32.119Z,95563.79
2018-02-22T21:53:00.457Z,95568.81
2018-02-22T21:55:28.807Z,95563.53
2018-02-22T21:57:57.161Z,95557.76
2018-02-22T22:00:25.519Z,95558.73
2018-02-22T22:02:53.866Z,95558.11
2018-02-22T22:05:22.239Z,95557.53
2018-02-22T22:07:50.579Z,95556.66
2018-02-22T22:10:18.914Z,95561.77
2018-02-22T22:12:47.262Z,95540.95
2018-02-22T22:15:15.603Z,95541.97
2018-02-22T22:17:43.959Z,95550.59
2018-02-22T22:20:12.286Z,95543.92
2018-02-22T22:22:40.645Z,95554.53
2018-02-22T22:25:08.973Z,95550.78
2018-02-22T22:27:37.349Z,95553.11
2018-02-22T22:30:05.679Z,95548.19
2018-02-22T22:32:34.089Z,95554.28
2018-02-22T22:35:02.423Z,95549.95
2018-02-22T22:37:30.763Z,95546.95
2018-02-22T22:39:59.121Z,95550.52
2018-02-22T22:42:27.456Z,95553.57
2018-02-22T22:44:55.800Z,95547.20
2018-02-22T22:47:24.154Z,95548.16
2018-02-22T22:49:52.514Z,95547.66
2018-02-22T22:52:20.843Z,95545.56
2018-02-22T22:54:49.204Z,95552.60
2018-02-22T22:57:18.326Z,95551.36
2018-02-22T22:59:46.702Z,95554.91
2018-02-22T23:02:15.040Z,95554.56
2018-02-22T23:04:43.400Z,95549.83
2018-02-22T23:07:11.778Z,95547.51
2018-02-22T23:09:40.172Z,95547.64
2018-02-22T23:12:08.541Z,95545.44
2018-02-22T23:14:36.878Z,95557.69
2018-02-22T23:17:05.259Z,95548.52
2018-02-22T23:19:33.599Z,95540.19
2018-02-22T23:22:02.027Z,95543.31
2018-02-22T23:24:30.436Z,95537.65
2018-02-22T23:26:58.858Z,95539.52
2018-02-22T23:29:27.241Z,95539.56
2018-02-22T23:31:55.665Z,95536.16
2018-02-22T23:34:24.771Z,95533.55
2018-02-22T23:36:53.152Z,95531.07
2018-02-22T23:39:21.494Z,95536.45
2018-02-22T23:44:56.992Z,95534.75
2018-02-22T23:47:26.778Z,95530.05
2018-02-22T23:49:55.166Z,95534.28
2018-02-22T23:52:23.529Z,95531.03
2018-02-22T23:54:51.858Z,95531.06
2018-02-22T23:57:20.251Z,95531.38
2018-02-22T23:59:48.604Z,95537.11
